sensor_id;sensor_type;location;lat;lon;timestamp;P1;durP1;ratioP1;P2;durP2;ratioP2
26989;SDS011;14537;47.788;11.858;2022-12-18T00:01:30;35.00;;;11.43;;
26989;SDS011;14537;47.788;11.858;2022-12-18T00:03:58;40.22;;;12.18;;
26989;SDS011;14537;47.788;11.858;2022-12-18T00:06:25;30.38;;;11.45;;
26989;SDS011;14537;47.788;11.858;2022-12-18T00:08:52;37.45;;;11.15;;
26989;SDS011;14537;47.788;11.858;2022-12-18T00:11:18;38.42;;;11.80;;
26989;SDS011;14537;47.788;11.858;2022-12-18T00:13:47;32.22;;;10.15;;
26989;SDS011;14537;47.788;11.858;2022-12-18T00:16:15;33.47;;;10.98;;
26989;SDS011;14537;47.788;11.858;2022-12-18T00:18:45;33.28;;;10.88;;
26989;SDS011;14537;47.788;11.858;2022-12-18T00:21:11;33.17;;;11.18;;
26989;SDS011;14537;47.788;11.858;2022-12-18T00:23:38;35.30;;;10.48;;
26989;SDS011;14537;47.788;11.858;2022-12-18T00:26:05;37.90;;;13.20;;
26989;SDS011;14537;47.788;11.858;2022-12-18T00:28:32;38.70;;;11.35;;
26989;SDS011;14537;47.788;11.858;2022-12-18T00:31:00;35.25;;;13.32;;
26989;SDS011;14537;47.788;11.858;2022-12-18T00:33:29;49.03;;;14.45;;
26989;SDS011;14537;47.788;11.858;2022-12-18T00:35:59;44.33;;;12.85;;
26989;SDS011;14537;47.788;11.858;2022-12-18T00:38:26;45.65;;;12.15;;
26989;SDS011;14537;47.788;11.858;2022-12-18T00:40:52;41.17;;;12.27;;
26989;SDS011;14537;47.788;11.858;2022-12-18T00:43:18;41.08;;;11.75;;
26989;SDS011;14537;47.788;11.858;2022-12-18T00:45:43;39.33;;;11.48;;
26989;SDS011;14537;47.788;11.858;2022-12-18T00:48:09;34.10;;;9.77;;
26989;SDS011;14537;47.788;11.858;2022-12-18T00:50:34;25.90;;;8.60;;
26989;SDS011;14537;47.788;11.858;2022-12-18T00:53:01;32.95;;;9.68;;
26989;SDS011;14537;47.788;11.858;2022-12-18T00:55:27;29.17;;;9.98;;
26989;SDS011;14537;47.788;11.858;2022-12-18T00:57:52;34.40;;;10.77;;
26989;SDS011;14537;47.788;11.858;2022-12-18T01:00:18;30.52;;;10.27;;
26989;SDS011;14537;47.788;11.858;2022-12-18T01:02:44;26.63;;;9.70;;
26989;SDS011;14537;47.788;11.858;2022-12-18T01:05:10;35.13;;;10.65;;
26989;SDS011;14537;47.788;11.858;2022-12-18T01:07:37;27.48;;;9.95;;
26989;SDS011;14537;47.788;11.858;2022-12-18T01:10:03;31.92;;;11.32;;
26989;SDS011;14537;47.788;11.858;2022-12-18T01:12:30;29.92;;;9.45;;
26989;SDS011;14537;47.788;11.858;2022-12-18T01:14:56;33.15;;;9.15;;
26989;SDS011;14537;47.788;11.858;2022-12-18T01:17:22;28.65;;;9.20;;
26989;SDS011;14537;47.788;11.858;2022-12-18T01:19:47;30.77;;;9.43;;
26989;SDS011;14537;47.788;11.858;2022-12-18T01:22:13;39.15;;;12.10;;
26989;SDS011;14537;47.788;11.858;2022-12-18T01:24:38;34.58;;;9.75;;
26989;SDS011;14537;47.788;11.858;2022-12-18T01:27:04;33.60;;;11.13;;
26989;SDS011;14537;47.788;11.858;2022-12-18T01:29:30;29.88;;;9.73;;
26989;SDS011;14537;47.788;11.858;2022-12-18T01:31:55;27.58;;;10.25;;
26989;SDS011;14537;47.788;11.858;2022-12-18T01:34:21;30.42;;;9.98;;
26989;SDS011;14537;47.788;11.858;2022-12-18T01:36:48;28.20;;;10.02;;
26989;SDS011;14537;47.788;11.858;2022-12-18T01:39:14;30.20;;;10.20;;
26989;SDS011;14537;47.788;11.858;2022-12-18T01:41:40;30.92;;;9.90;;
26989;SDS011;14537;47.788;11.858;2022-12-18T01:50:14;30.50;;;10.07;;
26989;SDS011;14537;47.788;11.858;2022-12-18T01:53:07;32.30;;;11.63;;
26989;SDS011;14537;47.788;11.858;2022-12-18T01:55:49;24.83;;;9.70;;
26989;SDS011;14537;47.788;11.858;2022-12-18T01:58:17;28.48;;;9.93;;
26989;SDS011;14537;47.788;11.858;2022-12-18T02:00:44;29.95;;;10.40;;
26989;SDS011;14537;47.788;11.858;2022-12-18T02:03:10;36.20;;;11.07;;
26989;SDS011;14537;47.788;11.858;2022-12-18T02:10:45;39.65;;;11.65;;
26989;SDS011;14537;47.788;11.858;2022-12-18T02:18:53;38.13;;;11.27;;
26989;SDS011;14537;47.788;11.858;2022-12-18T02:21:45;35.78;;;11.13;;
26989;SDS011;14537;47.788;11.858;2022-12-18T02:26:55;40.78;;;11.90;;
26989;SDS011;14537;47.788;11.858;2022-12-18T02:29:32;31.30;;;10.63;;
26989;SDS011;14537;47.788;11.858;2022-12-18T02:32:10;36.30;;;10.50;;
26989;SDS011;14537;47.788;11.858;2022-12-18T02:34:40;31.67;;;10.27;;
26989;SDS011;14537;47.788;11.858;2022-12-18T02:37:07;40.08;;;12.13;;
26989;SDS011;14537;47.788;11.858;2022-12-18T02:39:37;40.45;;;11.88;;
26989;SDS011;14537;47.788;11.858;2022-12-18T02:42:04;37.65;;;12.98;;
26989;SDS011;14537;47.788;11.858;2022-12-18T02:44:43;38.47;;;11.73;;
26989;SDS011;14537;47.788;11.858;2022-12-18T02:47:13;33.95;;;9.52;;
26989;SDS011;14537;47.788;11.858;2022-12-18T02:49:44;35.45;;;10.90;;
26989;SDS011;14537;47.788;11.858;2022-12-18T02:52:31;35.25;;;10.07;;
26989;SDS011;14537;47.788;11.858;2022-12-18T03:00:17;38.50;;;11.05;;
26989;SDS011;14537;47.788;11.858;2022-12-18T03:05:22;30.88;;;9.95;;
26989;SDS011;14537;47.788;11.858;2022-12-18T03:07:53;29.10;;;9.95;;
26989;SDS011;14537;47.788;11.858;2022-12-18T03:10:32;42.13;;;11.75;;
26989;SDS011;14537;47.788;11.858;2022-12-18T03:13:04;34.08;;;10.45;;
26989;SDS011;14537;47.788;11.858;2022-12-18T03:15:37;44.75;;;12.38;;
26989;SDS011;14537;47.788;11.858;2022-12-18T03:18:10;39.33;;;11.85;;
26989;SDS011;14537;47.788;11.858;2022-12-18T03:20:48;27.30;;;9.38;;
26989;SDS011;14537;47.788;11.858;2022-12-18T03:23:18;36.83;;;10.93;;
26989;SDS011;14537;47.788;11.858;2022-12-18T03:25:47;30.50;;;9.73;;
26989;SDS011;14537;47.788;11.858;2022-12-18T03:28:20;36.50;;;11.32;;
26989;SDS011;14537;47.788;11.858;2022-12-18T03:33:15;32.78;;;8.07;;
26989;SDS011;14537;47.788;11.858;2022-12-18T03:35:47;30.55;;;8.50;;
26989;SDS011;14537;47.788;11.858;2022-12-18T03:38:13;35.00;;;11.52;;
26989;SDS011;14537;47.788;11.858;2022-12-18T03:41:04;31.65;;;9.63;;
26989;SDS011;14537;47.788;11.858;2022-12-18T03:43:48;38.10;;;10.15;;
26989;SDS011;14537;47.788;11.858;2022-12-18T03:49:19;27.80;;;10.05;;
26989;SDS011;14537;47.788;11.858;2022-12-18T03:51:57;23.77;;;8.00;;
26989;SDS011;14537;47.788;11.858;2022-12-18T03:54:30;31.58;;;9.80;;
26989;SDS011;14537;47.788;11.858;2022-12-18T03:57:05;27.85;;;8.13;;
26989;SDS011;14537;47.788;11.858;2022-12-18T03:59:36;29.52;;;8.98;;
26989;SDS011;14537;47.788;11.858;2022-12-18T04:02:04;30.52;;;9.90;;
26989;SDS011;14537;47.788;11.858;2022-12-18T04:04:32;31.90;;;9.10;;
26989;SDS011;14537;47.788;11.858;2022-12-18T04:06:59;31.30;;;9.45;;
26989;SDS011;14537;47.788;11.858;2022-12-18T04:09:26;28.67;;;9.30;;
26989;SDS011;14537;47.788;11.858;2022-12-18T04:11:53;31.10;;;10.00;;
26989;SDS011;14537;47.788;11.858;2022-12-18T04:14:18;30.80;;;10.32;;
26989;SDS011;14537;47.788;11.858;2022-12-18T04:16:44;33.70;;;12.23;;
26989;SDS011;14537;47.788;11.858;2022-12-18T04:19:10;26.42;;;9.05;;
26989;SDS011;14537;47.788;11.858;2022-12-18T04:21:35;31.23;;;10.30;;
26989;SDS011;14537;47.788;11.858;2022-12-18T04:24:01;28.17;;;9.10;;
26989;SDS011;14537;47.788;11.858;2022-12-18T04:26:27;25.02;;;9.13;;
26989;SDS011;14537;47.788;11.858;2022-12-18T04:28:52;30.48;;;9.50;;
26989;SDS011;14537;47.788;11.858;2022-12-18T04:31:18;26.75;;;9.32;;
26989;SDS011;14537;47.788;11.858;2022-12-18T04:33:43;34.33;;;9.70;;
26989;SDS011;14537;47.788;11.858;2022-12-18T04:36:09;31.50;;;8.57;;
26989;SDS011;14537;47.788;11.858;2022-12-18T04:38:34;32.28;;;9.60;;
26989;SDS011;14537;47.788;11.858;2022-12-18T04:41:00;26.30;;;8.75;;
26989;SDS011;14537;47.788;11.858;2022-12-18T04:43:26;28.25;;;8.85;;
26989;SDS011;14537;47.788;11.858;2022-12-18T04:45:51;29.67;;;8.27;;
26989;SDS011;14537;47.788;11.858;2022-12-18T04:48:17;27.85;;;9.43;;
26989;SDS011;14537;47.788;11.858;2022-12-18T04:50:43;40.03;;;11.23;;
26989;SDS011;14537;47.788;11.858;2022-12-18T04:53:08;26.13;;;8.55;;
26989;SDS011;14537;47.788;11.858;2022-12-18T04:55:34;29.02;;;9.63;;
26989;SDS011;14537;47.788;11.858;2022-12-18T04:57:59;27.63;;;8.25;;
26989;SDS011;14537;47.788;11.858;2022-12-18T05:00:25;26.75;;;8.45;;
26989;SDS011;14537;47.788;11.858;2022-12-18T05:02:51;33.95;;;8.95;;
26989;SDS011;14537;47.788;11.858;2022-12-18T05:05:16;23.35;;;7.20;;
26989;SDS011;14537;47.788;11.858;2022-12-18T05:07:42;25.52;;;8.48;;
26989;SDS011;14537;47.788;11.858;2022-12-18T05:10:08;25.05;;;8.05;;
26989;SDS011;14537;47.788;11.858;2022-12-18T05:12:34;30.73;;;9.02;;
26989;SDS011;14537;47.788;11.858;2022-12-18T05:15:19;24.90;;;7.82;;
26989;SDS011;14537;47.788;11.858;2022-12-18T05:17:45;20.33;;;7.82;;
26989;SDS011;14537;47.788;11.858;2022-12-18T05:20:10;23.40;;;8.73;;
26989;SDS011;14537;47.788;11.858;2022-12-18T05:22:36;29.95;;;8.73;;
26989;SDS011;14537;47.788;11.858;2022-12-18T05:25:02;26.35;;;8.60;;
26989;SDS011;14537;47.788;11.858;2022-12-18T05:27:27;23.77;;;7.47;;
26989;SDS011;14537;47.788;11.858;2022-12-18T05:29:53;26.05;;;8.80;;
26989;SDS011;14537;47.788;11.858;2022-12-18T05:32:18;27.88;;;9.57;;
26989;SDS011;14537;47.788;11.858;2022-12-18T05:34:44;20.90;;;8.75;;
26989;SDS011;14537;47.788;11.858;2022-12-18T05:37:10;24.40;;;9.35;;
26989;SDS011;14537;47.788;11.858;2022-12-18T05:39:35;26.10;;;7.93;;
26989;SDS011;14537;47.788;11.858;2022-12-18T05:42:01;23.48;;;8.27;;
26989;SDS011;14537;47.788;11.858;2022-12-18T05:44:26;26.17;;;8.60;;
26989;SDS011;14537;47.788;11.858;2022-12-18T05:46:52;23.42;;;8.00;;
26989;SDS011;14537;47.788;11.858;2022-12-18T05:49:17;19.52;;;8.57;;
26989;SDS011;14537;47.788;11.858;2022-12-18T05:51:43;25.75;;;8.10;;
26989;SDS011;14537;47.788;11.858;2022-12-18T05:54:09;27.42;;;8.32;;
26989;SDS011;14537;47.788;11.858;2022-12-18T05:56:34;23.05;;;7.72;;
26989;SDS011;14537;47.788;11.858;2022-12-18T05:59:00;26.77;;;9.45;;
26989;SDS011;14537;47.788;11.858;2022-12-18T06:01:26;23.80;;;8.02;;
26989;SDS011;14537;47.788;11.858;2022-12-18T06:03:52;21.67;;;8.23;;
26989;SDS011;14537;47.788;11.858;2022-12-18T06:08:45;20.65;;;8.68;;
26989;SDS011;14537;47.788;11.858;2022-12-18T06:11:11;27.63;;;7.72;;
26989;SDS011;14537;47.788;11.858;2022-12-18T06:13:37;22.88;;;7.45;;
26989;SDS011;14537;47.788;11.858;2022-12-18T06:16:04;24.40;;;8.70;;
26989;SDS011;14537;47.788;11.858;2022-12-18T06:18:30;25.48;;;8.60;;
26989;SDS011;14537;47.788;11.858;2022-12-18T06:20:56;31.15;;;9.18;;
26989;SDS011;14537;47.788;11.858;2022-12-18T06:23:22;33.50;;;9.85;;
26989;SDS011;14537;47.788;11.858;2022-12-18T06:25:48;27.33;;;9.30;;
26989;SDS011;14537;47.788;11.858;2022-12-18T06:28:14;31.23;;;9.57;;
26989;SDS011;14537;47.788;11.858;2022-12-18T06:30:42;28.17;;;8.57;;
26989;SDS011;14537;47.788;11.858;2022-12-18T06:33:09;26.67;;;8.20;;
26989;SDS011;14537;47.788;11.858;2022-12-18T06:35:34;22.70;;;7.90;;
26989;SDS011;14537;47.788;11.858;2022-12-18T06:38:02;32.25;;;8.65;;
26989;SDS011;14537;47.788;11.858;2022-12-18T06:40:28;28.55;;;8.50;;
26989;SDS011;14537;47.788;11.858;2022-12-18T06:42:54;32.53;;;7.72;;
26989;SDS011;14537;47.788;11.858;2022-12-18T06:45:19;27.05;;;8.18;;
26989;SDS011;14537;47.788;11.858;2022-12-18T06:47:45;24.98;;;8.32;;
26989;SDS011;14537;47.788;11.858;2022-12-18T06:50:11;23.80;;;8.07;;
26989;SDS011;14537;47.788;11.858;2022-12-18T06:52:37;24.92;;;9.45;;
26989;SDS011;14537;47.788;11.858;2022-12-18T06:55:04;21.70;;;7.45;;
26989;SDS011;14537;47.788;11.858;2022-12-18T06:57:31;29.25;;;9.05;;
26989;SDS011;14537;47.788;11.858;2022-12-18T06:59:56;26.05;;;7.65;;
26989;SDS011;14537;47.788;11.858;2022-12-18T07:02:22;21.67;;;8.15;;
26989;SDS011;14537;47.788;11.858;2022-12-18T07:04:50;26.52;;;7.63;;
26989;SDS011;14537;47.788;11.858;2022-12-18T07:07:16;21.65;;;7.68;;
26989;SDS011;14537;47.788;11.858;2022-12-18T07:09:42;26.30;;;8.68;;
26989;SDS011;14537;47.788;11.858;2022-12-18T07:12:07;18.80;;;6.47;;
26989;SDS011;14537;47.788;11.858;2022-12-18T07:14:33;29.17;;;8.45;;
26989;SDS011;14537;47.788;11.858;2022-12-18T07:16:59;33.20;;;8.45;;
26989;SDS011;14537;47.788;11.858;2022-12-18T07:19:24;30.27;;;8.82;;
26989;SDS011;14537;47.788;11.858;2022-12-18T07:21:50;34.97;;;11.13;;
26989;SDS011;14537;47.788;11.858;2022-12-18T07:24:16;26.38;;;9.48;;
26989;SDS011;14537;47.788;11.858;2022-12-18T07:26:42;29.45;;;11.25;;
26989;SDS011;14537;47.788;11.858;2022-12-18T07:29:07;55.30;;;15.80;;
26989;SDS011;14537;47.788;11.858;2022-12-18T07:31:33;51.40;;;16.17;;
26989;SDS011;14537;47.788;11.858;2022-12-18T07:33:59;42.58;;;13.85;;
26989;SDS011;14537;47.788;11.858;2022-12-18T07:36:24;32.40;;;10.10;;
26989;SDS011;14537;47.788;11.858;2022-12-18T07:38:50;26.05;;;9.05;;
26989;SDS011;14537;47.788;11.858;2022-12-18T07:41:17;22.15;;;8.13;;
26989;SDS011;14537;47.788;11.858;2022-12-18T07:43:44;23.95;;;8.77;;
26989;SDS011;14537;47.788;11.858;2022-12-18T07:46:10;24.52;;;9.13;;
26989;SDS011;14537;47.788;11.858;2022-12-18T07:48:38;20.90;;;7.50;;
26989;SDS011;14537;47.788;11.858;2022-12-18T07:51:05;30.67;;;9.45;;
26989;SDS011;14537;47.788;11.858;2022-12-18T07:53:31;32.58;;;10.45;;
26989;SDS011;14537;47.788;11.858;2022-12-18T07:55:59;22.73;;;8.23;;
26989;SDS011;14537;47.788;11.858;2022-12-18T07:58:27;29.90;;;9.38;;
26989;SDS011;14537;47.788;11.858;2022-12-18T08:00:53;26.35;;;9.80;;
26989;SDS011;14537;47.788;11.858;2022-12-18T08:03:20;38.13;;;10.57;;
26989;SDS011;14537;47.788;11.858;2022-12-18T08:05:46;30.45;;;11.25;;
26989;SDS011;14537;47.788;11.858;2022-12-18T08:08:14;33.75;;;11.35;;
26989;SDS011;14537;47.788;11.858;2022-12-18T08:10:40;29.10;;;9.40;;
26989;SDS011;14537;47.788;11.858;2022-12-18T08:13:05;26.60;;;8.88;;
26989;SDS011;14537;47.788;11.858;2022-12-18T08:15:31;26.58;;;10.07;;
26989;SDS011;14537;47.788;11.858;2022-12-18T08:17:57;34.28;;;10.00;;
26989;SDS011;14537;47.788;11.858;2022-12-18T08:20:22;24.42;;;8.32;;
26989;SDS011;14537;47.788;11.858;2022-12-18T08:22:48;47.20;;;11.65;;
26989;SDS011;14537;47.788;11.858;2022-12-18T08:25:14;30.77;;;11.27;;
26989;SDS011;14537;47.788;11.858;2022-12-18T08:27:39;36.97;;;13.10;;
26989;SDS011;14537;47.788;11.858;2022-12-18T08:30:05;35.00;;;12.35;;
26989;SDS011;14537;47.788;11.858;2022-12-18T08:32:31;32.28;;;10.45;;
26989;SDS011;14537;47.788;11.858;2022-12-18T08:34:58;35.13;;;10.95;;
26989;SDS011;14537;47.788;11.858;2022-12-18T08:37:23;28.38;;;10.15;;
26989;SDS011;14537;47.788;11.858;2022-12-18T08:39:49;29.95;;;9.80;;
26989;SDS011;14537;47.788;11.858;2022-12-18T08:42:15;32.72;;;10.57;;
26989;SDS011;14537;47.788;11.858;2022-12-18T08:44:59;29.67;;;9.05;;
26989;SDS011;14537;47.788;11.858;2022-12-18T08:47:25;35.45;;;9.70;;
26989;SDS011;14537;47.788;11.858;2022-12-18T08:49:51;33.28;;;11.68;;
26989;SDS011;14537;47.788;11.858;2022-12-18T08:52:16;36.10;;;11.13;;
26989;SDS011;14537;47.788;11.858;2022-12-18T08:54:42;43.33;;;13.30;;
26989;SDS011;14537;47.788;11.858;2022-12-18T08:57:08;35.80;;;11.48;;
26989;SDS011;14537;47.788;11.858;2022-12-18T08:59:33;32.60;;;10.82;;
26989;SDS011;14537;47.788;11.858;2022-12-18T09:01:59;34.10;;;11.63;;
26989;SDS011;14537;47.788;11.858;2022-12-18T09:04:24;48.53;;;13.45;;
26989;SDS011;14537;47.788;11.858;2022-12-18T09:06:50;33.92;;;12.43;;
26989;SDS011;14537;47.788;11.858;2022-12-18T09:09:16;35.20;;;11.23;;
26989;SDS011;14537;47.788;11.858;2022-12-18T09:11:41;33.78;;;11.07;;
26989;SDS011;14537;47.788;11.858;2022-12-18T09:14:08;35.20;;;10.75;;
26989;SDS011;14537;47.788;11.858;2022-12-18T09:16:35;30.58;;;11.30;;
26989;SDS011;14537;47.788;11.858;2022-12-18T09:19:01;33.63;;;10.88;;
26989;SDS011;14537;47.788;11.858;2022-12-18T09:21:30;36.30;;;10.57;;
26989;SDS011;14537;47.788;11.858;2022-12-18T09:23:58;28.60;;;10.88;;
26989;SDS011;14537;47.788;11.858;2022-12-18T09:26:24;36.20;;;11.45;;
26989;SDS011;14537;47.788;11.858;2022-12-18T09:28:51;30.13;;;9.65;;
26989;SDS011;14537;47.788;11.858;2022-12-18T09:31:18;36.70;;;12.25;;
26989;SDS011;14537;47.788;11.858;2022-12-18T09:33:45;38.15;;;11.32;;
26989;SDS011;14537;47.788;11.858;2022-12-18T09:36:12;29.38;;;9.30;;
26989;SDS011;14537;47.788;11.858;2022-12-18T09:38:40;30.38;;;9.48;;
26989;SDS011;14537;47.788;11.858;2022-12-18T09:44:09;25.65;;;8.98;;
26989;SDS011;14537;47.788;11.858;2022-12-18T09:46:53;30.15;;;9.70;;
26989;SDS011;14537;47.788;11.858;2022-12-18T09:49:20;31.70;;;10.18;;
26989;SDS011;14537;47.788;11.858;2022-12-18T09:54:26;34.10;;;9.60;;
26989;SDS011;14537;47.788;11.858;2022-12-18T09:57:00;36.00;;;10.52;;
26989;SDS011;14537;47.788;11.858;2022-12-18T09:59:27;24.73;;;9.20;;
26989;SDS011;14537;47.788;11.858;2022-12-18T10:02:15;31.50;;;10.77;;
26989;SDS011;14537;47.788;11.858;2022-12-18T10:04:45;53.53;;;15.68;;
26989;SDS011;14537;47.788;11.858;2022-12-18T10:07:55;53.53;;;14.50;;
26989;SDS011;14537;47.788;11.858;2022-12-18T10:21:17;39.85;;;12.75;;
26989;SDS011;14537;47.788;11.858;2022-12-18T10:24:00;35.08;;;10.40;;
26989;SDS011;14537;47.788;11.858;2022-12-18T10:26:45;45.20;;;12.52;;
26989;SDS011;14537;47.788;11.858;2022-12-18T10:29:13;27.67;;;9.05;;
26989;SDS011;14537;47.788;11.858;2022-12-18T10:31:40;32.38;;;11.65;;
26989;SDS011;14537;47.788;11.858;2022-12-18T10:34:12;34.15;;;13.07;;
26989;SDS011;14537;47.788;11.858;2022-12-18T10:36:38;31.70;;;10.93;;
26989;SDS011;14537;47.788;11.858;2022-12-18T10:42:16;33.55;;;10.80;;
26989;SDS011;14537;47.788;11.858;2022-12-18T10:44:43;34.60;;;13.63;;
26989;SDS011;14537;47.788;11.858;2022-12-18T10:47:14;33.85;;;10.88;;
26989;SDS011;14537;47.788;11.858;2022-12-18T10:49:47;29.23;;;9.88;;
26989;SDS011;14537;47.788;11.858;2022-12-18T10:52:15;29.60;;;9.65;;
26989;SDS011;14537;47.788;11.858;2022-12-18T10:55:04;30.73;;;9.95;;
26989;SDS011;14537;47.788;11.858;2022-12-18T10:57:37;34.10;;;10.07;;
26989;SDS011;14537;47.788;11.858;2022-12-18T11:02:50;27.67;;;8.35;;
26989;SDS011;14537;47.788;11.858;2022-12-18T11:05:49;28.65;;;9.77;;
26989;SDS011;14537;47.788;11.858;2022-12-18T11:08:11;24.83;;;8.55;;
26989;SDS011;14537;47.788;11.858;2022-12-18T11:13:23;29.85;;;9.27;;
26989;SDS011;14537;47.788;11.858;2022-12-18T11:15:50;29.95;;;10.30;;
26989;SDS011;14537;47.788;11.858;2022-12-18T11:18:22;34.60;;;11.63;;
26989;SDS011;14537;47.788;11.858;2022-12-18T11:21:00;41.92;;;14.27;;
26989;SDS011;14537;47.788;11.858;2022-12-18T11:23:32;28.20;;;9.98;;
26989;SDS011;14537;47.788;11.858;2022-12-18T11:26:01;29.33;;;10.93;;
26989;SDS011;14537;47.788;11.858;2022-12-18T11:31:15;32.65;;;9.65;;
26989;SDS011;14537;47.788;11.858;2022-12-18T11:36:39;30.02;;;10.23;;
26989;SDS011;14537;47.788;11.858;2022-12-18T11:39:11;24.85;;;9.50;;
26989;SDS011;14537;47.788;11.858;2022-12-18T11:41:56;25.02;;;9.55;;
26989;SDS011;14537;47.788;11.858;2022-12-18T11:44:41;29.65;;;9.63;;
26989;SDS011;14537;47.788;11.858;2022-12-18T11:50:17;27.00;;;8.85;;
26989;SDS011;14537;47.788;11.858;2022-12-18T11:52:47;29.15;;;8.27;;
26989;SDS011;14537;47.788;11.858;2022-12-18T11:55:14;28.73;;;9.80;;
26989;SDS011;14537;47.788;11.858;2022-12-18T11:58:12;27.38;;;9.40;;
26989;SDS011;14537;47.788;11.858;2022-12-18T12:00:47;23.55;;;8.30;;
26989;SDS011;14537;47.788;11.858;2022-12-18T12:15:05;30.67;;;10.13;;
26989;SDS011;14537;47.788;11.858;2022-12-18T12:21:20;30.83;;;10.18;;
26989;SDS011;14537;47.788;11.858;2022-12-18T12:26:03;29.58;;;8.20;;
26989;SDS011;14537;47.788;11.858;2022-12-18T12:34:55;26.80;;;9.20;;
26989;SDS011;14537;47.788;11.858;2022-12-18T12:40:07;35.85;;;11.63;;
26989;SDS011;14537;47.788;11.858;2022-12-18T12:42:41;24.20;;;9.32;;
26989;SDS011;14537;47.788;11.858;2022-12-18T12:45:36;33.75;;;10.20;;
26989;SDS011;14537;47.788;11.858;2022-12-18T12:48:05;27.10;;;9.65;;
26989;SDS011;14537;47.788;11.858;2022-12-18T12:50:35;34.20;;;11.02;;
26989;SDS011;14537;47.788;11.858;2022-12-18T12:53:01;28.50;;;9.82;;
26989;SDS011;14537;47.788;11.858;2022-12-18T12:55:31;31.33;;;9.65;;
26989;SDS011;14537;47.788;11.858;2022-12-18T12:58:07;27.67;;;9.82;;
26989;SDS011;14537;47.788;11.858;2022-12-18T13:00:49;28.73;;;9.20;;
26989;SDS011;14537;47.788;11.858;2022-12-18T13:06:09;30.77;;;10.18;;
26989;SDS011;14537;47.788;11.858;2022-12-18T13:08:52;31.05;;;9.57;;
26989;SDS011;14537;47.788;11.858;2022-12-18T13:14:32;32.47;;;8.88;;
26989;SDS011;14537;47.788;11.858;2022-12-18T13:19:47;32.30;;;10.27;;
26989;SDS011;14537;47.788;11.858;2022-12-18T13:22:30;67.30;;;17.70;;
26989;SDS011;14537;47.788;11.858;2022-12-18T13:25:01;74.97;;;20.08;;
26989;SDS011;14537;47.788;11.858;2022-12-18T13:41:03;59.05;;;15.32;;
26989;SDS011;14537;47.788;11.858;2022-12-18T13:49:04;62.92;;;16.50;;
26989;SDS011;14537;47.788;11.858;2022-12-18T13:51:38;72.35;;;18.25;;
26989;SDS011;14537;47.788;11.858;2022-12-18T13:56:55;73.80;;;20.13;;
26989;SDS011;14537;47.788;11.858;2022-12-18T14:01:54;75.53;;;19.85;;
26989;SDS011;14537;47.788;11.858;2022-12-18T14:04:29;57.45;;;18.95;;
26989;SDS011;14537;47.788;11.858;2022-12-18T14:06:57;43.25;;;12.32;;
26989;SDS011;14537;47.788;11.858;2022-12-18T14:09:31;43.53;;;13.38;;
26989;SDS011;14537;47.788;11.858;2022-12-18T14:12:01;39.83;;;12.25;;
26989;SDS011;14537;47.788;11.858;2022-12-18T14:14:46;78.47;;;23.13;;
26989;SDS011;14537;47.788;11.858;2022-12-18T14:17:14;76.95;;;21.23;;
26989;SDS011;14537;47.788;11.858;2022-12-18T14:19:41;35.03;;;12.75;;
26989;SDS011;14537;47.788;11.858;2022-12-18T14:22:18;41.20;;;11.55;;
26989;SDS011;14537;47.788;11.858;2022-12-18T14:27:59;27.05;;;8.85;;
26989;SDS011;14537;47.788;11.858;2022-12-18T14:30:40;23.73;;;8.05;;
26989;SDS011;14537;47.788;11.858;2022-12-18T14:35:38;31.85;;;9.75;;
26989;SDS011;14537;47.788;11.858;2022-12-18T14:40:35;42.80;;;14.17;;
26989;SDS011;14537;47.788;11.858;2022-12-18T14:43:02;47.38;;;15.57;;
26989;SDS011;14537;47.788;11.858;2022-12-18T14:45:34;44.08;;;13.70;;
26989;SDS011;14537;47.788;11.858;2022-12-18T14:48:07;37.10;;;11.30;;
26989;SDS011;14537;47.788;11.858;2022-12-18T14:50:34;37.05;;;10.65;;
26989;SDS011;14537;47.788;11.858;2022-12-18T14:53:00;28.70;;;10.60;;
26989;SDS011;14537;47.788;11.858;2022-12-18T14:55:26;41.75;;;13.07;;
26989;SDS011;14537;47.788;11.858;2022-12-18T14:57:52;34.70;;;11.02;;
26989;SDS011;14537;47.788;11.858;2022-12-18T15:00:20;38.67;;;12.43;;
26989;SDS011;14537;47.788;11.858;2022-12-18T15:02:55;40.53;;;12.93;;
26989;SDS011;14537;47.788;11.858;2022-12-18T15:07:53;52.08;;;12.02;;
26989;SDS011;14537;47.788;11.858;2022-12-18T15:17:59;37.83;;;11.00;;
26989;SDS011;14537;47.788;11.858;2022-12-18T15:20:27;32.45;;;10.57;;
26989;SDS011;14537;47.788;11.858;2022-12-18T15:22:56;41.67;;;13.35;;
26989;SDS011;14537;47.788;11.858;2022-12-18T15:25:43;43.70;;;11.65;;
26989;SDS011;14537;47.788;11.858;2022-12-18T15:28:24;32.28;;;10.77;;
26989;SDS011;14537;47.788;11.858;2022-12-18T15:31:01;35.03;;;11.05;;
26989;SDS011;14537;47.788;11.858;2022-12-18T15:33:45;35.90;;;10.30;;
26989;SDS011;14537;47.788;11.858;2022-12-18T15:36:18;35.67;;;11.63;;
26989;SDS011;14537;47.788;11.858;2022-12-18T15:38:48;30.17;;;10.70;;
26989;SDS011;14537;47.788;11.858;2022-12-18T15:41:15;27.65;;;10.02;;
26989;SDS011;14537;47.788;11.858;2022-12-18T15:43:43;32.20;;;11.30;;
26989;SDS011;14537;47.788;11.858;2022-12-18T15:46:13;29.65;;;10.38;;
26989;SDS011;14537;47.788;11.858;2022-12-18T15:48:50;30.75;;;9.98;;
26989;SDS011;14537;47.788;11.858;2022-12-18T15:51:18;27.98;;;10.35;;
26989;SDS011;14537;47.788;11.858;2022-12-18T15:53:50;24.60;;;7.80;;
26989;SDS011;14537;47.788;11.858;2022-12-18T15:56:19;35.05;;;11.40;;
26989;SDS011;14537;47.788;11.858;2022-12-18T15:59:07;33.70;;;10.25;;
26989;SDS011;14537;47.788;11.858;2022-12-18T16:01:38;34.88;;;10.60;;
26989;SDS011;14537;47.788;11.858;2022-12-18T16:04:05;37.30;;;10.40;;
26989;SDS011;14537;47.788;11.858;2022-12-18T16:06:31;32.13;;;10.13;;
26989;SDS011;14537;47.788;11.858;2022-12-18T16:08:56;31.27;;;10.05;;
26989;SDS011;14537;47.788;11.858;2022-12-18T16:11:26;35.75;;;11.90;;
26989;SDS011;14537;47.788;11.858;2022-12-18T16:14:19;33.17;;;9.70;;
26989;SDS011;14537;47.788;11.858;2022-12-18T16:16:52;39.80;;;10.35;;
26989;SDS011;14537;47.788;11.858;2022-12-18T16:19:19;35.33;;;10.65;;
26989;SDS011;14537;47.788;11.858;2022-12-18T16:21:46;32.33;;;12.05;;
26989;SDS011;14537;47.788;11.858;2022-12-18T16:24:20;27.92;;;9.13;;
26989;SDS011;14537;47.788;11.858;2022-12-18T16:26:47;37.90;;;11.10;;
26989;SDS011;14537;47.788;11.858;2022-12-18T16:29:13;32.20;;;9.85;;
26989;SDS011;14537;47.788;11.858;2022-12-18T16:31:39;30.17;;;8.70;;
26989;SDS011;14537;47.788;11.858;2022-12-18T16:34:19;30.83;;;10.80;;
26989;SDS011;14537;47.788;11.858;2022-12-18T16:36:50;25.58;;;10.63;;
26989;SDS011;14537;47.788;11.858;2022-12-18T16:39:16;30.33;;;10.00;;
26989;SDS011;14537;47.788;11.858;2022-12-18T16:41:42;28.95;;;9.90;;
26989;SDS011;14537;47.788;11.858;2022-12-18T16:44:08;36.50;;;10.75;;
26989;SDS011;14537;47.788;11.858;2022-12-18T16:46:35;48.83;;;13.15;;
26989;SDS011;14537;47.788;11.858;2022-12-18T16:49:01;49.53;;;13.60;;
26989;SDS011;14537;47.788;11.858;2022-12-18T16:51:27;38.85;;;12.30;;
26989;SDS011;14537;47.788;11.858;2022-12-18T16:53:53;58.58;;;16.10;;
26989;SDS011;14537;47.788;11.858;2022-12-18T16:56:20;32.20;;;9.75;;